sensor_id;sensor_type;location;lat;lon;timestamp;P1;durP1;ratioP1;P2;durP2;ratioP2
21663;SDS011;10993;52.510;13.456;2023-07-24T00:04:19;5.23;;;2.50;;
21663;SDS011;10993;52.510;13.456;2023-07-24T00:09:20;4.28;;;2.28;;
21663;SDS011;10993;52.510;13.456;2023-07-24T00:14:20;4.20;;;2.10;;
21663;SDS011;10993;52.510;13.456;2023-07-24T00:19:22;6.75;;;2.20;;
21663;SDS011;10993;52.510;13.456;2023-07-24T00:24:22;3.70;;;2.20;;
21663;SDS011;10993;52.510;13.456;2023-07-24T00:29:22;4.78;;;2.13;;
21663;SDS011;10993;52.510;13.456;2023-07-24T00:34:24;5.35;;;2.40;;
21663;SDS011;10993;52.510;13.456;2023-07-24T00:39:24;3.90;;;2.00;;
21663;SDS011;10993;52.510;13.456;2023-07-24T00:44:28;4.90;;;2.47;;
21663;SDS011;10993;52.510;13.456;2023-07-24T00:49:29;4.25;;;2.10;;
21663;SDS011;10993;52.510;13.456;2023-07-24T00:54:30;4.18;;;2.25;;
21663;SDS011;10993;52.510;13.456;2023-07-24T00:59:33;4.80;;;2.17;;
21663;SDS011;10993;52.510;13.456;2023-07-24T01:04:35;3.95;;;2.08;;
21663;SDS011;10993;52.510;13.456;2023-07-24T01:09:35;5.97;;;2.05;;
21663;SDS011;10993;52.510;13.456;2023-07-24T01:14:37;5.73;;;2.30;;
21663;SDS011;10993;52.510;13.456;2023-07-24T01:19:46;5.07;;;2.60;;
21663;SDS011;10993;52.510;13.456;2023-07-24T01:25:04;6.70;;;2.25;;
21663;SDS011;10993;52.510;13.456;2023-07-24T01:30:11;7.13;;;3.10;;
21663;SDS011;10993;52.510;13.456;2023-07-24T01:35:12;5.00;;;2.58;;
21663;SDS011;10993;52.510;13.456;2023-07-24T01:40:13;5.03;;;2.50;;
21663;SDS011;10993;52.510;13.456;2023-07-24T01:45:16;4.43;;;2.35;;
21663;SDS011;10993;52.510;13.456;2023-07-24T01:50:16;4.55;;;2.05;;
21663;SDS011;10993;52.510;13.456;2023-07-24T01:55:17;4.38;;;2.00;;
21663;SDS011;10993;52.510;13.456;2023-07-24T02:00:19;6.07;;;1.70;;
21663;SDS011;10993;52.510;13.456;2023-07-24T02:05:19;4.60;;;2.30;;
21663;SDS011;10993;52.510;13.456;2023-07-24T02:10:20;4.73;;;1.93;;
21663;SDS011;10993;52.510;13.456;2023-07-24T02:15:21;4.67;;;2.00;;
21663;SDS011;10993;52.510;13.456;2023-07-24T02:20:21;4.43;;;2.20;;
21663;SDS011;10993;52.510;13.456;2023-07-24T02:25:22;3.97;;;1.85;;
21663;SDS011;10993;52.510;13.456;2023-07-24T02:30:24;4.18;;;2.28;;
21663;SDS011;10993;52.510;13.456;2023-07-24T02:35:24;4.18;;;1.95;;
21663;SDS011;10993;52.510;13.456;2023-07-24T02:40:24;5.30;;;1.90;;
21663;SDS011;10993;52.510;13.456;2023-07-24T02:45:26;4.80;;;1.90;;
21663;SDS011;10993;52.510;13.456;2023-07-24T02:50:26;3.90;;;2.08;;
21663;SDS011;10993;52.510;13.456;2023-07-24T02:55:27;6.32;;;2.10;;
21663;SDS011;10993;52.510;13.456;2023-07-24T03:00:28;4.13;;;1.73;;
21663;SDS011;10993;52.510;13.456;2023-07-24T03:05:29;4.22;;;1.80;;
21663;SDS011;10993;52.510;13.456;2023-07-24T03:10:30;3.50;;;1.60;;
21663;SDS011;10993;52.510;13.456;2023-07-24T03:15:31;3.17;;;1.90;;
21663;SDS011;10993;52.510;13.456;2023-07-24T03:20:32;3.05;;;1.52;;
21663;SDS011;10993;52.510;13.456;2023-07-24T03:25:32;3.07;;;1.37;;
21663;SDS011;10993;52.510;13.456;2023-07-24T03:30:36;2.90;;;1.67;;
21663;SDS011;10993;52.510;13.456;2023-07-24T03:35:37;3.30;;;1.65;;
21663;SDS011;10993;52.510;13.456;2023-07-24T03:40:37;4.22;;;1.63;;
21663;SDS011;10993;52.510;13.456;2023-07-24T03:45:39;3.20;;;1.20;;
21663;SDS011;10993;52.510;13.456;2023-07-24T03:50:40;3.47;;;1.73;;
21663;SDS011;10993;52.510;13.456;2023-07-24T03:55:40;3.50;;;1.55;;
21663;SDS011;10993;52.510;13.456;2023-07-24T04:00:42;2.63;;;1.42;;
21663;SDS011;10993;52.510;13.456;2023-07-24T04:05:42;2.67;;;1.35;;
21663;SDS011;10993;52.510;13.456;2023-07-24T04:10:43;3.25;;;1.70;;
21663;SDS011;10993;52.510;13.456;2023-07-24T04:15:44;2.78;;;1.50;;
21663;SDS011;10993;52.510;13.456;2023-07-24T04:20:45;2.42;;;1.40;;
21663;SDS011;10993;52.510;13.456;2023-07-24T04:25:45;3.65;;;1.33;;
21663;SDS011;10993;52.510;13.456;2023-07-24T04:30:47;2.80;;;1.30;;
21663;SDS011;10993;52.510;13.456;2023-07-24T04:35:47;2.78;;;1.40;;
21663;SDS011;10993;52.510;13.456;2023-07-24T04:40:48;5.20;;;1.70;;
21663;SDS011;10993;52.510;13.456;2023-07-24T04:45:50;2.47;;;1.42;;
21663;SDS011;10993;52.510;13.456;2023-07-24T04:50:52;2.40;;;1.20;;
21663;SDS011;10993;52.510;13.456;2023-07-24T04:55:53;4.47;;;1.38;;
21663;SDS011;10993;52.510;13.456;2023-07-24T05:00:55;2.80;;;1.20;;
21663;SDS011;10993;52.510;13.456;2023-07-24T05:05:55;2.80;;;1.20;;
21663;SDS011;10993;52.510;13.456;2023-07-24T05:10:56;2.15;;;1.15;;
21663;SDS011;10993;52.510;13.456;2023-07-24T05:16:01;2.25;;;1.13;;
21663;SDS011;10993;52.510;13.456;2023-07-24T05:21:01;1.92;;;1.20;;
21663;SDS011;10993;52.510;13.456;2023-07-24T05:26:02;1.73;;;0.90;;
21663;SDS011;10993;52.510;13.456;2023-07-24T05:31:05;3.08;;;0.95;;
21663;SDS011;10993;52.510;13.456;2023-07-24T05:36:05;2.72;;;1.10;;
21663;SDS011;10993;52.510;13.456;2023-07-24T05:41:06;2.28;;;0.90;;
21663;SDS011;10993;52.510;13.456;2023-07-24T05:46:08;2.40;;;1.00;;
21663;SDS011;10993;52.510;13.456;2023-07-24T05:51:08;1.85;;;0.90;;
21663;SDS011;10993;52.510;13.456;2023-07-24T05:56:08;2.47;;;1.20;;
21663;SDS011;10993;52.510;13.456;2023-07-24T06:01:10;1.70;;;0.85;;
21663;SDS011;10993;52.510;13.456;2023-07-24T06:06:10;1.80;;;0.88;;
21663;SDS011;10993;52.510;13.456;2023-07-24T06:11:11;1.73;;;1.00;;
21663;SDS011;10993;52.510;13.456;2023-07-24T06:16:12;1.60;;;0.90;;
21663;SDS011;10993;52.510;13.456;2023-07-24T06:21:13;1.70;;;1.00;;
21663;SDS011;10993;52.510;13.456;2023-07-24T06:26:14;2.27;;;1.07;;
21663;SDS011;10993;52.510;13.456;2023-07-24T06:31:16;1.53;;;0.70;;
21663;SDS011;10993;52.510;13.456;2023-07-24T06:36:16;1.95;;;1.17;;
21663;SDS011;10993;52.510;13.456;2023-07-24T06:41:16;2.10;;;0.77;;
21663;SDS011;10993;52.510;13.456;2023-07-24T06:46:18;1.73;;;1.10;;
21663;SDS011;10993;52.510;13.456;2023-07-24T06:51:18;3.53;;;1.25;;
21663;SDS011;10993;52.510;13.456;2023-07-24T06:56:19;2.20;;;1.30;;
21663;SDS011;10993;52.510;13.456;2023-07-24T07:01:20;1.20;;;0.90;;
21663;SDS011;10993;52.510;13.456;2023-07-24T07:06:21;3.90;;;1.40;;
21663;SDS011;10993;52.510;13.456;2023-07-24T07:11:21;1.87;;;1.00;;
21663;SDS011;10993;52.510;13.456;2023-07-24T07:16:23;1.90;;;1.10;;
21663;SDS011;10993;52.510;13.456;2023-07-24T07:21:23;3.17;;;1.20;;
21663;SDS011;10993;52.510;13.456;2023-07-24T07:26:24;1.58;;;1.08;;
21663;SDS011;10993;52.510;13.456;2023-07-24T07:31:26;1.15;;;0.80;;
21663;SDS011;10993;52.510;13.456;2023-07-24T07:36:26;1.70;;;1.10;;
21663;SDS011;10993;52.510;13.456;2023-07-24T07:41:27;1.67;;;1.13;;
21663;SDS011;10993;52.510;13.456;2023-07-24T07:46:29;3.35;;;1.40;;
21663;SDS011;10993;52.510;13.456;2023-07-24T07:51:30;1.50;;;0.98;;
21663;SDS011;10993;52.510;13.456;2023-07-24T07:56:30;2.87;;;1.30;;
21663;SDS011;10993;52.510;13.456;2023-07-24T08:01:32;2.67;;;1.07;;
21663;SDS011;10993;52.510;13.456;2023-07-24T08:06:32;2.35;;;1.40;;
21663;SDS011;10993;52.510;13.456;2023-07-24T08:11:33;1.53;;;1.00;;
21663;SDS011;10993;52.510;13.456;2023-07-24T08:16:34;17.63;;;11.17;;
21663;SDS011;10993;52.510;13.456;2023-07-24T08:21:34;3.72;;;1.08;;
21663;SDS011;10993;52.510;13.456;2023-07-24T08:26:35;5.55;;;2.08;;
21663;SDS011;10993;52.510;13.456;2023-07-24T08:31:37;3.83;;;1.93;;
21663;SDS011;10993;52.510;13.456;2023-07-24T08:36:59;4.35;;;1.60;;
21663;SDS011;10993;52.510;13.456;2023-07-24T08:42:00;2.58;;;1.40;;
21663;SDS011;10993;52.510;13.456;2023-07-24T08:47:09;2.17;;;0.98;;
21663;SDS011;10993;52.510;13.456;2023-07-24T08:52:13;6.75;;;3.90;;
21663;SDS011;10993;52.510;13.456;2023-07-24T08:57:14;3.08;;;1.23;;
21663;SDS011;10993;52.510;13.456;2023-07-24T09:02:14;2.38;;;1.30;;
21663;SDS011;10993;52.510;13.456;2023-07-24T09:07:16;3.38;;;1.83;;
21663;SDS011;10993;52.510;13.456;2023-07-24T09:12:17;2.17;;;1.25;;
21663;SDS011;10993;52.510;13.456;2023-07-24T09:17:17;2.10;;;1.30;;
21663;SDS011;10993;52.510;13.456;2023-07-24T09:22:19;1.70;;;1.00;;
21663;SDS011;10993;52.510;13.456;2023-07-24T09:27:20;3.13;;;1.42;;
21663;SDS011;10993;52.510;13.456;2023-07-24T09:32:24;2.70;;;1.20;;
21663;SDS011;10993;52.510;13.456;2023-07-24T09:37:28;1.75;;;0.95;;
21663;SDS011;10993;52.510;13.456;2023-07-24T09:42:30;1.92;;;1.00;;
21663;SDS011;10993;52.510;13.456;2023-07-24T09:47:31;3.97;;;1.20;;
21663;SDS011;10993;52.510;13.456;2023-07-24T09:52:33;3.05;;;1.25;;
21663;SDS011;10993;52.510;13.456;2023-07-24T09:57:36;3.45;;;1.10;;
21663;SDS011;10993;52.510;13.456;2023-07-24T10:02:37;2.65;;;1.30;;
21663;SDS011;10993;52.510;13.456;2023-07-24T10:07:40;3.50;;;1.35;;
21663;SDS011;10993;52.510;13.456;2023-07-24T10:12:40;2.78;;;1.25;;
21663;SDS011;10993;52.510;13.456;2023-07-24T10:17:41;3.28;;;1.35;;
21663;SDS011;10993;52.510;13.456;2023-07-24T10:22:43;4.03;;;1.42;;
21663;SDS011;10993;52.510;13.456;2023-07-24T10:27:44;4.63;;;1.50;;
21663;SDS011;10993;52.510;13.456;2023-07-24T10:32:49;4.20;;;1.83;;
21663;SDS011;10993;52.510;13.456;2023-07-24T10:37:59;2.58;;;1.50;;
21663;SDS011;10993;52.510;13.456;2023-07-24T10:43:01;3.58;;;1.73;;
21663;SDS011;10993;52.510;13.456;2023-07-24T10:48:05;4.32;;;2.42;;
21663;SDS011;10993;52.510;13.456;2023-07-24T10:53:07;4.35;;;2.30;;
21663;SDS011;10993;52.510;13.456;2023-07-24T10:58:08;3.80;;;2.00;;
21663;SDS011;10993;52.510;13.456;2023-07-24T11:03:10;3.90;;;2.45;;
21663;SDS011;10993;52.510;13.456;2023-07-24T11:08:12;5.25;;;3.10;;
21663;SDS011;10993;52.510;13.456;2023-07-24T11:13:16;5.80;;;2.63;;
21663;SDS011;10993;52.510;13.456;2023-07-24T11:18:18;5.82;;;2.28;;
21663;SDS011;10993;52.510;13.456;2023-07-24T11:23:23;5.47;;;3.00;;
21663;SDS011;10993;52.510;13.456;2023-07-24T11:28:24;4.38;;;2.40;;
21663;SDS011;10993;52.510;13.456;2023-07-24T11:33:24;4.65;;;2.42;;
21663;SDS011;10993;52.510;13.456;2023-07-24T11:38:27;5.05;;;2.60;;
21663;SDS011;10993;52.510;13.456;2023-07-24T11:43:28;4.65;;;2.13;;
21663;SDS011;10993;52.510;13.456;2023-07-24T11:48:28;6.82;;;3.88;;
21663;SDS011;10993;52.510;13.456;2023-07-24T11:53:30;7.53;;;4.22;;
21663;SDS011;10993;52.510;13.456;2023-07-24T11:58:31;6.90;;;3.13;;
21663;SDS011;10993;52.510;13.456;2023-07-24T12:03:32;7.93;;;2.95;;
21663;SDS011;10993;52.510;13.456;2023-07-24T12:08:34;4.95;;;2.83;;
21663;SDS011;10993;52.510;13.456;2023-07-24T12:13:35;5.97;;;3.10;;
21663;SDS011;10993;52.510;13.456;2023-07-24T12:18:35;7.13;;;3.30;;
21663;SDS011;10993;52.510;13.456;2023-07-24T12:23:37;8.53;;;3.57;;
21663;SDS011;10993;52.510;13.456;2023-07-24T12:28:37;7.55;;;3.60;;
21663;SDS011;10993;52.510;13.456;2023-07-24T12:33:38;5.80;;;2.70;;
21663;SDS011;10993;52.510;13.456;2023-07-24T12:38:40;4.13;;;2.60;;
21663;SDS011;10993;52.510;13.456;2023-07-24T12:43:40;5.25;;;2.58;;
21663;SDS011;10993;52.510;13.456;2023-07-24T12:48:40;5.32;;;2.88;;
21663;SDS011;10993;52.510;13.456;2023-07-24T12:53:42;5.13;;;2.80;;
21663;SDS011;10993;52.510;13.456;2023-07-24T12:58:43;6.00;;;3.13;;
21663;SDS011;10993;52.510;13.456;2023-07-24T13:03:44;4.38;;;2.13;;
21663;SDS011;10993;52.510;13.456;2023-07-24T13:08:46;5.60;;;2.45;;
21663;SDS011;10993;52.510;13.456;2023-07-24T13:13:46;5.50;;;2.67;;
21663;SDS011;10993;52.510;13.456;2023-07-24T13:18:46;5.00;;;2.50;;
21663;SDS011;10993;52.510;13.456;2023-07-24T13:23:48;4.05;;;2.10;;
21663;SDS011;10993;52.510;13.456;2023-07-24T13:28:49;4.53;;;2.38;;
21663;SDS011;10993;52.510;13.456;2023-07-24T13:33:49;6.03;;;2.50;;
21663;SDS011;10993;52.510;13.456;2023-07-24T13:38:51;8.38;;;3.40;;
21663;SDS011;10993;52.510;13.456;2023-07-24T13:43:52;4.07;;;2.65;;
21663;SDS011;10993;52.510;13.456;2023-07-24T13:48:52;4.10;;;2.17;;
21663;SDS011;10993;52.510;13.456;2023-07-24T13:53:54;6.63;;;2.83;;
21663;SDS011;10993;52.510;13.456;2023-07-24T13:58:58;5.28;;;2.75;;
21663;SDS011;10993;52.510;13.456;2023-07-24T14:03:59;5.28;;;2.72;;
21663;SDS011;10993;52.510;13.456;2023-07-24T14:09:02;5.32;;;2.90;;
21663;SDS011;10993;52.510;13.456;2023-07-24T14:14:03;4.55;;;2.45;;
21663;SDS011;10993;52.510;13.456;2023-07-24T14:19:03;6.28;;;3.42;;
21663;SDS011;10993;52.510;13.456;2023-07-24T14:24:05;9.38;;;2.83;;
21663;SDS011;10993;52.510;13.456;2023-07-24T14:29:06;5.22;;;2.28;;
21663;SDS011;10993;52.510;13.456;2023-07-24T14:34:06;5.45;;;2.72;;
21663;SDS011;10993;52.510;13.456;2023-07-24T14:39:12;6.05;;;2.67;;
21663;SDS011;10993;52.510;13.456;2023-07-24T14:44:12;7.20;;;2.90;;
21663;SDS011;10993;52.510;13.456;2023-07-24T14:49:13;6.30;;;3.67;;
21663;SDS011;10993;52.510;13.456;2023-07-24T14:54:14;8.17;;;3.20;;
21663;SDS011;10993;52.510;13.456;2023-07-24T14:59:15;6.38;;;3.20;;
21663;SDS011;10993;52.510;13.456;2023-07-24T15:04:15;8.15;;;2.50;;
21663;SDS011;10993;52.510;13.456;2023-07-24T15:09:17;6.25;;;2.90;;
21663;SDS011;10993;52.510;13.456;2023-07-24T15:14:17;6.25;;;3.55;;
21663;SDS011;10993;52.510;13.456;2023-07-24T15:19:18;5.72;;;3.00;;
21663;SDS011;10993;52.510;13.456;2023-07-24T15:24:19;7.73;;;2.83;;
21663;SDS011;10993;52.510;13.456;2023-07-24T15:29:20;5.75;;;3.17;;
21663;SDS011;10993;52.510;13.456;2023-07-24T15:34:20;5.82;;;3.17;;
21663;SDS011;10993;52.510;13.456;2023-07-24T15:39:22;5.60;;;2.78;;
21663;SDS011;10993;52.510;13.456;2023-07-24T15:44:23;18.08;;;9.35;;
21663;SDS011;10993;52.510;13.456;2023-07-24T15:49:23;5.30;;;3.07;;
21663;SDS011;10993;52.510;13.456;2023-07-24T15:54:25;6.40;;;3.80;;
21663;SDS011;10993;52.510;13.456;2023-07-24T15:59:25;5.13;;;2.92;;
21663;SDS011;10993;52.510;13.456;2023-07-24T16:04:25;5.73;;;2.73;;
21663;SDS011;10993;52.510;13.456;2023-07-24T16:09:27;6.32;;;3.20;;
21663;SDS011;10993;52.510;13.456;2023-07-24T16:14:28;5.25;;;3.03;;
21663;SDS011;10993;52.510;13.456;2023-07-24T16:19:28;6.72;;;3.47;;
21663;SDS011;10993;52.510;13.456;2023-07-24T16:24:30;6.00;;;3.00;;
21663;SDS011;10993;52.510;13.456;2023-07-24T16:29:30;7.90;;;4.35;;
21663;SDS011;10993;52.510;13.456;2023-07-24T16:34:32;7.05;;;3.25;;
21663;SDS011;10993;52.510;13.456;2023-07-24T16:39:37;6.35;;;2.95;;
21663;SDS011;10993;52.510;13.456;2023-07-24T16:44:37;4.22;;;2.17;;
21663;SDS011;10993;52.510;13.456;2023-07-24T16:49:38;6.10;;;3.17;;
21663;SDS011;10993;52.510;13.456;2023-07-24T16:54:40;6.23;;;3.33;;
21663;SDS011;10993;52.510;13.456;2023-07-24T16:59:43;5.05;;;2.90;;
21663;SDS011;10993;52.510;13.456;2023-07-24T17:04:43;7.00;;;3.78;;
21663;SDS011;10993;52.510;13.456;2023-07-24T17:09:45;8.63;;;4.35;;
21663;SDS011;10993;52.510;13.456;2023-07-24T17:14:45;7.15;;;2.78;;
21663;SDS011;10993;52.510;13.456;2023-07-24T17:19:45;3.50;;;2.10;;
21663;SDS011;10993;52.510;13.456;2023-07-24T17:24:47;6.10;;;2.00;;
21663;SDS011;10993;52.510;13.456;2023-07-24T17:29:47;2.47;;;1.50;;
21663;SDS011;10993;52.510;13.456;2023-07-24T17:34:48;10.23;;;1.63;;
21663;SDS011;10993;52.510;13.456;2023-07-24T17:39:50;4.85;;;0.90;;
21663;SDS011;10993;52.510;13.456;2023-07-24T17:44:50;5.65;;;0.90;;
21663;SDS011;10993;52.510;13.456;2023-07-24T17:49:51;4.03;;;0.93;;
21663;SDS011;10993;52.510;13.456;2023-07-24T17:54:52;3.47;;;0.90;;
21663;SDS011;10993;52.510;13.456;2023-07-24T17:59:53;3.30;;;1.60;;
21663;SDS011;10993;52.510;13.456;2023-07-24T18:04:53;3.08;;;1.00;;
21663;SDS011;10993;52.510;13.456;2023-07-24T18:09:55;2.67;;;0.70;;
21663;SDS011;10993;52.510;13.456;2023-07-24T18:14:56;2.63;;;0.90;;
21663;SDS011;10993;52.510;13.456;2023-07-24T18:19:56;2.88;;;0.80;;
21663;SDS011;10993;52.510;13.456;2023-07-24T18:24:58;7.20;;;1.30;;
21663;SDS011;10993;52.510;13.456;2023-07-24T18:29:58;5.43;;;1.70;;
21663;SDS011;10993;52.510;13.456;2023-07-24T18:34:58;5.77;;;2.37;;
21663;SDS011;10993;52.510;13.456;2023-07-24T18:40:00;8.13;;;3.30;;
21663;SDS011;10993;52.510;13.456;2023-07-24T18:45:01;7.22;;;3.97;;
21663;SDS011;10993;52.510;13.456;2023-07-24T18:50:01;7.18;;;3.83;;
21663;SDS011;10993;52.510;13.456;2023-07-24T18:55:04;4.53;;;2.13;;
21663;SDS011;10993;52.510;13.456;2023-07-24T19:00:06;7.25;;;1.80;;
21663;SDS011;10993;52.510;13.456;2023-07-24T19:05:07;4.63;;;2.47;;
21663;SDS011;10993;52.510;13.456;2023-07-24T19:10:09;4.43;;;2.00;;
21663;SDS011;10993;52.510;13.456;2023-07-24T19:15:10;5.95;;;3.00;;
21663;SDS011;10993;52.510;13.456;2023-07-24T19:20:11;4.15;;;2.15;;
21663;SDS011;10993;52.510;13.456;2023-07-24T19:25:14;4.18;;;2.00;;
21663;SDS011;10993;52.510;13.456;2023-07-24T19:30:14;3.03;;;1.55;;
21663;SDS011;10993;52.510;13.456;2023-07-24T19:35:15;4.45;;;2.03;;
21663;SDS011;10993;52.510;13.456;2023-07-24T19:40:17;5.28;;;2.47;;
21663;SDS011;10993;52.510;13.456;2023-07-24T19:45:17;4.78;;;2.20;;
21663;SDS011;10993;52.510;13.456;2023-07-24T19:50:18;4.65;;;1.75;;
21663;SDS011;10993;52.510;13.456;2023-07-24T19:55:20;5.30;;;1.88;;
21663;SDS011;10993;52.510;13.456;2023-07-24T20:00:20;5.03;;;2.17;;
21663;SDS011;10993;52.510;13.456;2023-07-24T20:05:21;6.93;;;2.92;;
21663;SDS011;10993;52.510;13.456;2023-07-24T20:10:23;7.57;;;3.10;;
21663;SDS011;10993;52.510;13.456;2023-07-24T20:15:23;6.03;;;2.85;;
21663;SDS011;10993;52.510;13.456;2023-07-24T20:20:24;5.75;;;3.20;;
21663;SDS011;10993;52.510;13.456;2023-07-24T20:25:26;10.23;;;4.57;;
21663;SDS011;10993;52.510;13.456;2023-07-24T20:30:29;7.32;;;4.05;;
21663;SDS011;10993;52.510;13.456;2023-07-24T20:35:30;8.88;;;3.25;;
21663;SDS011;10993;52.510;13.456;2023-07-24T20:40:34;7.40;;;3.45;;
21663;SDS011;10993;52.510;13.456;2023-07-24T20:45:34;8.15;;;3.85;;
21663;SDS011;10993;52.510;13.456;2023-07-24T20:50:35;5.97;;;3.60;;
21663;SDS011;10993;52.510;13.456;2023-07-24T20:55:50;10.18;;;4.90;;
21663;SDS011;10993;52.510;13.456;2023-07-24T21:00:51;8.68;;;4.43;;
21663;SDS011;10993;52.510;13.456;2023-07-24T21:06:07;9.27;;;4.68;;
21663;SDS011;10993;52.510;13.456;2023-07-24T21:11:09;8.88;;;4.28;;
21663;SDS011;10993;52.510;13.456;2023-07-24T21:16:09;11.30;;;4.20;;
21663;SDS011;10993;52.510;13.456;2023-07-24T21:21:10;11.98;;;5.43;;
21663;SDS011;10993;52.510;13.456;2023-07-24T21:26:11;11.75;;;5.78;;
21663;SDS011;10993;52.510;13.456;2023-07-24T21:31:12;6.55;;;3.78;;
21663;SDS011;10993;52.510;13.456;2023-07-24T21:36:13;10.40;;;4.88;;
21663;SDS011;10993;52.510;13.456;2023-07-24T21:41:14;18.63;;;10.38;;
21663;SDS011;10993;52.510;13.456;2023-07-24T21:46:15;7.28;;;4.38;;
21663;SDS011;10993;52.510;13.456;2023-07-24T21:51:15;9.65;;;4.18;;
21663;SDS011;10993;52.510;13.456;2023-07-24T21:56:17;7.83;;;4.53;;
21663;SDS011;10993;52.510;13.456;2023-07-24T22:01:17;6.53;;;3.40;;
21663;SDS011;10993;52.510;13.456;2023-07-24T22:06:20;7.15;;;4.00;;
21663;SDS011;10993;52.510;13.456;2023-07-24T22:11:22;6.03;;;3.60;;
21663;SDS011;10993;52.510;13.456;2023-07-24T22:16:24;9.15;;;5.25;;
21663;SDS011;10993;52.510;13.456;2023-07-24T22:21:25;6.57;;;4.00;;
21663;SDS011;10993;52.510;13.456;2023-07-24T22:26:26;8.32;;;3.35;;
21663;SDS011;10993;52.510;13.456;2023-07-24T22:31:27;5.70;;;3.42;;
21663;SDS011;10993;52.510;13.456;2023-07-24T22:36:28;6.70;;;4.23;;
21663;SDS011;10993;52.510;13.456;2023-07-24T22:41:30;6.60;;;3.95;;
21663;SDS011;10993;52.510;13.456;2023-07-24T22:46:30;6.78;;;3.50;;
21663;SDS011;10993;52.510;13.456;2023-07-24T22:51:31;10.75;;;5.88;;
21663;SDS011;10993;52.510;13.456;2023-07-24T22:56:33;13.95;;;8.15;;
21663;SDS011;10993;52.510;13.456;2023-07-24T23:01:33;9.70;;;5.63;;
21663;SDS011;10993;52.510;13.456;2023-07-24T23:06:33;12.70;;;7.18;;
21663;SDS011;10993;52.510;13.456;2023-07-24T23:11:35;8.20;;;4.57;;
21663;SDS011;10993;52.510;13.456;2023-07-24T23:16:35;8.82;;;5.10;;
21663;SDS011;10993;52.510;13.456;2023-07-24T23:21:36;7.40;;;4.03;;
21663;SDS011;10993;52.510;13.456;2023-07-24T23:26:37;5.95;;;3.67;;
21663;SDS011;10993;52.510;13.456;2023-07-24T23:31:38;5.88;;;3.83;;
21663;SDS011;10993;52.510;13.456;2023-07-24T23:36:38;5.85;;;3.63;;
21663;SDS011;10993;52.510;13.456;2023-07-24T23:41:40;7.40;;;3.47;;
21663;SDS011;10993;52.510;13.456;2023-07-24T23:46:40;5.38;;;3.15;;
21663;SDS011;10993;52.510;13.456;2023-07-24T23:51:42;9.10;;;3.30;;
21663;SDS011;10993;52.510;13.456;2023-07-24T23:56:44;5.00;;;2.97;;
